sensor_id;sensor_type;location;lat;lon;timestamp;P1;durP1;ratioP1;P2;durP2;ratioP2
17441;SDS011;8838;50.144;8.176;2023-06-22T00:02:17;10.20;;;6.47;;
17441;SDS011;8838;50.144;8.176;2023-06-22T00:04:44;8.65;;;6.72;;
17441;SDS011;8838;50.144;8.176;2023-06-22T00:07:11;9.93;;;6.40;;
17441;SDS011;8838;50.144;8.176;2023-06-22T00:09:38;8.07;;;6.28;;
17441;SDS011;8838;50.144;8.176;2023-06-22T00:12:07;10.30;;;7.05;;
17441;SDS011;8838;50.144;8.176;2023-06-22T00:14:34;8.98;;;6.43;;
17441;SDS011;8838;50.144;8.176;2023-06-22T00:17:01;6.60;;;5.90;;
17441;SDS011;8838;50.144;8.176;2023-06-22T00:19:28;7.53;;;6.13;;
17441;SDS011;8838;50.144;8.176;2023-06-22T00:21:55;7.10;;;5.80;;
17441;SDS011;8838;50.144;8.176;2023-06-22T00:24:25;7.22;;;5.85;;
17441;SDS011;8838;50.144;8.176;2023-06-22T00:26:52;7.65;;;6.47;;
17441;SDS011;8838;50.144;8.176;2023-06-22T00:29:20;7.35;;;6.30;;
17441;SDS011;8838;50.144;8.176;2023-06-22T00:31:48;7.13;;;6.00;;
17441;SDS011;8838;50.144;8.176;2023-06-22T00:34:14;7.55;;;6.75;;
17441;SDS011;8838;50.144;8.176;2023-06-22T00:36:42;8.13;;;6.40;;
17441;SDS011;8838;50.144;8.176;2023-06-22T00:39:09;9.25;;;7.03;;
17441;SDS011;8838;50.144;8.176;2023-06-22T00:41:35;7.45;;;5.90;;
17441;SDS011;8838;50.144;8.176;2023-06-22T00:44:02;10.63;;;6.82;;
17441;SDS011;8838;50.144;8.176;2023-06-22T00:46:31;7.57;;;5.72;;
17441;SDS011;8838;50.144;8.176;2023-06-22T00:48:58;6.45;;;5.80;;
17441;SDS011;8838;50.144;8.176;2023-06-22T00:51:25;10.13;;;6.38;;
17441;SDS011;8838;50.144;8.176;2023-06-22T00:53:54;7.90;;;6.38;;
17441;SDS011;8838;50.144;8.176;2023-06-22T00:56:22;7.78;;;6.32;;
17441;SDS011;8838;50.144;8.176;2023-06-22T00:58:50;9.85;;;6.80;;
17441;SDS011;8838;50.144;8.176;2023-06-22T01:01:18;9.45;;;6.30;;
17441;SDS011;8838;50.144;8.176;2023-06-22T01:03:49;9.63;;;6.85;;
17441;SDS011;8838;50.144;8.176;2023-06-22T01:06:19;7.55;;;6.43;;
17441;SDS011;8838;50.144;8.176;2023-06-22T01:08:54;7.63;;;6.72;;
17441;SDS011;8838;50.144;8.176;2023-06-22T01:11:28;9.43;;;7.28;;
17441;SDS011;8838;50.144;8.176;2023-06-22T01:14:02;8.77;;;7.40;;
17441;SDS011;8838;50.144;8.176;2023-06-22T01:16:34;12.18;;;7.90;;
17441;SDS011;8838;50.144;8.176;2023-06-22T01:19:09;9.70;;;7.35;;
17441;SDS011;8838;50.144;8.176;2023-06-22T01:21:53;12.02;;;8.07;;
17441;SDS011;8838;50.144;8.176;2023-06-22T01:24:27;11.77;;;8.13;;
17441;SDS011;8838;50.144;8.176;2023-06-22T01:27:05;17.38;;;8.82;;
17441;SDS011;8838;50.144;8.176;2023-06-22T01:29:41;9.82;;;8.43;;
17441;SDS011;8838;50.144;8.176;2023-06-22T01:32:09;11.27;;;8.32;;
17441;SDS011;8838;50.144;8.176;2023-06-22T01:34:39;12.98;;;8.90;;
17441;SDS011;8838;50.144;8.176;2023-06-22T01:37:07;10.77;;;8.30;;
17441;SDS011;8838;50.144;8.176;2023-06-22T01:39:35;11.13;;;8.63;;
17441;SDS011;8838;50.144;8.176;2023-06-22T01:42:03;14.75;;;7.90;;
17441;SDS011;8838;50.144;8.176;2023-06-22T01:44:30;10.82;;;7.80;;
17441;SDS011;8838;50.144;8.176;2023-06-22T01:47:01;10.13;;;7.35;;
17441;SDS011;8838;50.144;8.176;2023-06-22T01:49:28;10.65;;;7.20;;
17441;SDS011;8838;50.144;8.176;2023-06-22T01:51:55;9.77;;;7.15;;
17441;SDS011;8838;50.144;8.176;2023-06-22T01:54:22;10.95;;;7.53;;
17441;SDS011;8838;50.144;8.176;2023-06-22T01:56:49;12.02;;;8.75;;
17441;SDS011;8838;50.144;8.176;2023-06-22T01:59:17;11.10;;;9.05;;
17441;SDS011;8838;50.144;8.176;2023-06-22T02:01:54;12.73;;;9.25;;
17441;SDS011;8838;50.144;8.176;2023-06-22T02:04:27;12.50;;;8.95;;
17441;SDS011;8838;50.144;8.176;2023-06-22T02:07:00;9.98;;;8.52;;
17441;SDS011;8838;50.144;8.176;2023-06-22T02:09:32;13.95;;;9.10;;
17441;SDS011;8838;50.144;8.176;2023-06-22T02:12:01;12.23;;;9.43;;
17441;SDS011;8838;50.144;8.176;2023-06-22T02:14:30;15.10;;;9.27;;
17441;SDS011;8838;50.144;8.176;2023-06-22T02:16:57;10.98;;;8.77;;
17441;SDS011;8838;50.144;8.176;2023-06-22T02:19:26;10.18;;;8.32;;
17441;SDS011;8838;50.144;8.176;2023-06-22T02:21:58;10.95;;;8.18;;
17441;SDS011;8838;50.144;8.176;2023-06-22T02:24:24;12.45;;;8.55;;
17441;SDS011;8838;50.144;8.176;2023-06-22T02:26:51;11.10;;;8.80;;
17441;SDS011;8838;50.144;8.176;2023-06-22T02:29:18;8.35;;;7.47;;
17441;SDS011;8838;50.144;8.176;2023-06-22T02:31:45;8.32;;;7.43;;
17441;SDS011;8838;50.144;8.176;2023-06-22T02:34:11;8.80;;;7.78;;
17441;SDS011;8838;50.144;8.176;2023-06-22T02:36:44;10.93;;;8.43;;
17441;SDS011;8838;50.144;8.176;2023-06-22T02:39:15;10.98;;;9.30;;
17441;SDS011;8838;50.144;8.176;2023-06-22T02:41:43;11.57;;;9.60;;
17441;SDS011;8838;50.144;8.176;2023-06-22T02:44:09;14.27;;;9.88;;
17441;SDS011;8838;50.144;8.176;2023-06-22T02:46:36;13.35;;;10.05;;
17441;SDS011;8838;50.144;8.176;2023-06-22T02:49:03;12.60;;;9.52;;
17441;SDS011;8838;50.144;8.176;2023-06-22T02:51:30;10.10;;;8.75;;
17441;SDS011;8838;50.144;8.176;2023-06-22T02:54:00;11.50;;;9.30;;
17441;SDS011;8838;50.144;8.176;2023-06-22T02:56:28;13.70;;;9.70;;
17441;SDS011;8838;50.144;8.176;2023-06-22T02:58:55;11.18;;;9.32;;
17441;SDS011;8838;50.144;8.176;2023-06-22T03:01:26;10.60;;;9.43;;
17441;SDS011;8838;50.144;8.176;2023-06-22T03:03:55;11.20;;;9.60;;
17441;SDS011;8838;50.144;8.176;2023-06-22T03:06:22;10.80;;;9.65;;
17441;SDS011;8838;50.144;8.176;2023-06-22T03:08:54;11.65;;;10.18;;
17441;SDS011;8838;50.144;8.176;2023-06-22T03:11:27;13.63;;;9.70;;
17441;SDS011;8838;50.144;8.176;2023-06-22T03:13:54;12.63;;;9.52;;
17441;SDS011;8838;50.144;8.176;2023-06-22T03:16:20;22.23;;;10.60;;
17441;SDS011;8838;50.144;8.176;2023-06-22T03:18:47;10.32;;;8.60;;
17441;SDS011;8838;50.144;8.176;2023-06-22T03:21:14;9.98;;;8.27;;
17441;SDS011;8838;50.144;8.176;2023-06-22T03:23:41;11.32;;;8.20;;
17441;SDS011;8838;50.144;8.176;2023-06-22T03:26:08;12.60;;;8.38;;
17441;SDS011;8838;50.144;8.176;2023-06-22T03:28:37;10.52;;;8.40;;
17441;SDS011;8838;50.144;8.176;2023-06-22T03:31:04;10.85;;;7.78;;
17441;SDS011;8838;50.144;8.176;2023-06-22T03:33:31;8.98;;;8.02;;
17441;SDS011;8838;50.144;8.176;2023-06-22T03:36:01;9.68;;;8.52;;
17441;SDS011;8838;50.144;8.176;2023-06-22T03:38:28;10.60;;;8.55;;
17441;SDS011;8838;50.144;8.176;2023-06-22T03:40:55;11.07;;;8.38;;
17441;SDS011;8838;50.144;8.176;2023-06-22T03:43:22;9.57;;;8.15;;
17441;SDS011;8838;50.144;8.176;2023-06-22T03:45:51;11.35;;;8.80;;
17441;SDS011;8838;50.144;8.176;2023-06-22T03:48:17;8.98;;;8.07;;
17441;SDS011;8838;50.144;8.176;2023-06-22T03:50:44;10.63;;;8.43;;
17441;SDS011;8838;50.144;8.176;2023-06-22T03:53:11;10.95;;;8.70;;
17441;SDS011;8838;50.144;8.176;2023-06-22T03:55:40;11.27;;;8.70;;
17441;SDS011;8838;50.144;8.176;2023-06-22T03:58:13;8.75;;;7.72;;
17441;SDS011;8838;50.144;8.176;2023-06-22T04:00:40;10.25;;;7.95;;
17441;SDS011;8838;50.144;8.176;2023-06-22T04:03:09;9.00;;;8.10;;
17441;SDS011;8838;50.144;8.176;2023-06-22T04:05:37;10.38;;;7.82;;
17441;SDS011;8838;50.144;8.176;2023-06-22T04:08:04;9.77;;;7.93;;
17441;SDS011;8838;50.144;8.176;2023-06-22T04:10:31;8.77;;;7.88;;
17441;SDS011;8838;50.144;8.176;2023-06-22T04:12:58;12.13;;;9.27;;
17441;SDS011;8838;50.144;8.176;2023-06-22T04:15:26;12.82;;;9.40;;
17441;SDS011;8838;50.144;8.176;2023-06-22T04:17:55;10.13;;;9.00;;
17441;SDS011;8838;50.144;8.176;2023-06-22T04:20:23;10.80;;;8.95;;
17441;SDS011;8838;50.144;8.176;2023-06-22T04:22:51;11.35;;;8.90;;
17441;SDS011;8838;50.144;8.176;2023-06-22T04:25:18;11.55;;;9.40;;
17441;SDS011;8838;50.144;8.176;2023-06-22T04:27:46;13.05;;;9.90;;
17441;SDS011;8838;50.144;8.176;2023-06-22T04:30:13;10.45;;;9.38;;
17441;SDS011;8838;50.144;8.176;2023-06-22T04:32:41;11.05;;;9.40;;
17441;SDS011;8838;50.144;8.176;2023-06-22T04:35:08;12.18;;;8.93;;
17441;SDS011;8838;50.144;8.176;2023-06-22T04:37:37;10.65;;;8.63;;
17441;SDS011;8838;50.144;8.176;2023-06-22T04:40:04;10.20;;;9.15;;
17441;SDS011;8838;50.144;8.176;2023-06-22T04:42:34;14.77;;;10.00;;
17441;SDS011;8838;50.144;8.176;2023-06-22T04:45:02;11.02;;;9.57;;
17441;SDS011;8838;50.144;8.176;2023-06-22T04:47:29;12.15;;;9.93;;
17441;SDS011;8838;50.144;8.176;2023-06-22T04:49:56;12.00;;;10.23;;
17441;SDS011;8838;50.144;8.176;2023-06-22T04:52:23;13.20;;;10.80;;
17441;SDS011;8838;50.144;8.176;2023-06-22T04:54:51;11.15;;;9.95;;
17441;SDS011;8838;50.144;8.176;2023-06-22T04:57:20;16.30;;;10.55;;
17441;SDS011;8838;50.144;8.176;2023-06-22T04:59:57;13.38;;;10.98;;
17441;SDS011;8838;50.144;8.176;2023-06-22T05:02:41;11.90;;;10.40;;
17441;SDS011;8838;50.144;8.176;2023-06-22T05:05:08;11.07;;;9.90;;
17441;SDS011;8838;50.144;8.176;2023-06-22T05:07:38;11.43;;;9.85;;
17441;SDS011;8838;50.144;8.176;2023-06-22T05:10:09;11.75;;;10.20;;
17441;SDS011;8838;50.144;8.176;2023-06-22T05:12:38;12.90;;;10.43;;
17441;SDS011;8838;50.144;8.176;2023-06-22T05:15:06;14.82;;;10.75;;
17441;SDS011;8838;50.144;8.176;2023-06-22T05:17:34;14.15;;;11.45;;
17441;SDS011;8838;50.144;8.176;2023-06-22T05:20:01;12.48;;;10.13;;
17441;SDS011;8838;50.144;8.176;2023-06-22T05:22:31;13.43;;;11.02;;
17441;SDS011;8838;50.144;8.176;2023-06-22T05:24:58;17.90;;;11.60;;
17441;SDS011;8838;50.144;8.176;2023-06-22T05:27:26;12.35;;;10.38;;
17441;SDS011;8838;50.144;8.176;2023-06-22T05:29:53;13.68;;;11.43;;
17441;SDS011;8838;50.144;8.176;2023-06-22T05:32:20;14.57;;;11.40;;
17441;SDS011;8838;50.144;8.176;2023-06-22T05:34:46;13.38;;;11.93;;
17441;SDS011;8838;50.144;8.176;2023-06-22T05:37:13;14.90;;;11.90;;
17441;SDS011;8838;50.144;8.176;2023-06-22T05:39:40;16.35;;;11.40;;
17441;SDS011;8838;50.144;8.176;2023-06-22T05:42:07;12.52;;;11.23;;
17441;SDS011;8838;50.144;8.176;2023-06-22T05:44:35;13.23;;;10.98;;
17441;SDS011;8838;50.144;8.176;2023-06-22T05:47:05;16.58;;;12.00;;
17441;SDS011;8838;50.144;8.176;2023-06-22T05:49:34;17.60;;;11.73;;
17441;SDS011;8838;50.144;8.176;2023-06-22T05:52:01;14.18;;;10.60;;
17441;SDS011;8838;50.144;8.176;2023-06-22T05:54:28;14.32;;;11.32;;
17441;SDS011;8838;50.144;8.176;2023-06-22T05:56:55;14.25;;;11.15;;
17441;SDS011;8838;50.144;8.176;2023-06-22T05:59:25;12.48;;;11.18;;
17441;SDS011;8838;50.144;8.176;2023-06-22T06:01:53;13.77;;;10.88;;
17441;SDS011;8838;50.144;8.176;2023-06-22T06:04:20;13.15;;;11.13;;
17441;SDS011;8838;50.144;8.176;2023-06-22T06:06:47;13.23;;;11.45;;
17441;SDS011;8838;50.144;8.176;2023-06-22T06:09:13;14.15;;;11.20;;
17441;SDS011;8838;50.144;8.176;2023-06-22T06:11:40;16.13;;;11.73;;
17441;SDS011;8838;50.144;8.176;2023-06-22T06:14:09;16.13;;;12.13;;
17441;SDS011;8838;50.144;8.176;2023-06-22T06:16:35;12.90;;;11.60;;
17441;SDS011;8838;50.144;8.176;2023-06-22T06:19:04;13.35;;;11.43;;
17441;SDS011;8838;50.144;8.176;2023-06-22T06:21:31;13.60;;;11.38;;
17441;SDS011;8838;50.144;8.176;2023-06-22T06:23:58;18.00;;;10.85;;
17441;SDS011;8838;50.144;8.176;2023-06-22T06:26:25;14.60;;;11.27;;
17441;SDS011;8838;50.144;8.176;2023-06-22T06:28:55;15.15;;;11.23;;
17441;SDS011;8838;50.144;8.176;2023-06-22T06:31:22;14.43;;;11.38;;
17441;SDS011;8838;50.144;8.176;2023-06-22T06:33:49;12.77;;;11.25;;
17441;SDS011;8838;50.144;8.176;2023-06-22T06:36:17;13.40;;;11.23;;
17441;SDS011;8838;50.144;8.176;2023-06-22T06:38:44;15.55;;;11.00;;
17441;SDS011;8838;50.144;8.176;2023-06-22T06:41:12;15.23;;;10.93;;
17441;SDS011;8838;50.144;8.176;2023-06-22T06:43:39;12.55;;;11.00;;
17441;SDS011;8838;50.144;8.176;2023-06-22T06:46:07;23.10;;;11.82;;
17441;SDS011;8838;50.144;8.176;2023-06-22T06:48:34;23.63;;;10.80;;
17441;SDS011;8838;50.144;8.176;2023-06-22T06:51:01;15.57;;;11.55;;
17441;SDS011;8838;50.144;8.176;2023-06-22T06:53:29;15.77;;;10.55;;
17441;SDS011;8838;50.144;8.176;2023-06-22T06:55:56;17.45;;;11.23;;
17441;SDS011;8838;50.144;8.176;2023-06-22T06:58:23;16.40;;;11.05;;
17441;SDS011;8838;50.144;8.176;2023-06-22T07:00:49;19.25;;;10.63;;
17441;SDS011;8838;50.144;8.176;2023-06-22T07:03:16;15.27;;;9.45;;
17441;SDS011;8838;50.144;8.176;2023-06-22T07:05:43;11.45;;;9.55;;
17441;SDS011;8838;50.144;8.176;2023-06-22T07:08:10;13.05;;;9.10;;
17441;SDS011;8838;50.144;8.176;2023-06-22T07:10:38;10.38;;;8.75;;
17441;SDS011;8838;50.144;8.176;2023-06-22T07:13:05;14.55;;;9.95;;
17441;SDS011;8838;50.144;8.176;2023-06-22T07:15:31;11.30;;;9.48;;
17441;SDS011;8838;50.144;8.176;2023-06-22T07:17:59;10.55;;;9.45;;
17441;SDS011;8838;50.144;8.176;2023-06-22T07:20:26;10.02;;;8.55;;
17441;SDS011;8838;50.144;8.176;2023-06-22T07:22:52;9.75;;;8.77;;
17441;SDS011;8838;50.144;8.176;2023-06-22T07:25:19;10.63;;;9.35;;
17441;SDS011;8838;50.144;8.176;2023-06-22T07:27:57;23.58;;;20.83;;
17441;SDS011;8838;50.144;8.176;2023-06-22T07:30:26;10.57;;;8.88;;
17441;SDS011;8838;50.144;8.176;2023-06-22T07:32:53;9.63;;;8.63;;
17441;SDS011;8838;50.144;8.176;2023-06-22T07:35:20;12.02;;;9.00;;
17441;SDS011;8838;50.144;8.176;2023-06-22T07:37:46;11.35;;;9.05;;
17441;SDS011;8838;50.144;8.176;2023-06-22T07:40:13;10.55;;;8.45;;
17441;SDS011;8838;50.144;8.176;2023-06-22T07:42:40;10.45;;;8.18;;
17441;SDS011;8838;50.144;8.176;2023-06-22T07:45:12;9.68;;;8.55;;
17441;SDS011;8838;50.144;8.176;2023-06-22T07:47:38;10.50;;;8.43;;
17441;SDS011;8838;50.144;8.176;2023-06-22T07:50:05;9.60;;;8.55;;
17441;SDS011;8838;50.144;8.176;2023-06-22T07:52:32;10.40;;;7.97;;
17441;SDS011;8838;50.144;8.176;2023-06-22T07:54:59;11.27;;;8.75;;
17441;SDS011;8838;50.144;8.176;2023-06-22T07:57:27;10.18;;;8.60;;
17441;SDS011;8838;50.144;8.176;2023-06-22T07:59:58;11.75;;;8.38;;
17441;SDS011;8838;50.144;8.176;2023-06-22T08:02:26;9.13;;;7.97;;
17441;SDS011;8838;50.144;8.176;2023-06-22T08:04:53;8.55;;;7.47;;
17441;SDS011;8838;50.144;8.176;2023-06-22T08:07:20;10.18;;;7.85;;
17441;SDS011;8838;50.144;8.176;2023-06-22T08:09:47;10.77;;;8.27;;
17441;SDS011;8838;50.144;8.176;2023-06-22T08:12:15;12.02;;;8.52;;
17441;SDS011;8838;50.144;8.176;2023-06-22T08:14:42;12.93;;;8.38;;
17441;SDS011;8838;50.144;8.176;2023-06-22T08:17:11;9.45;;;8.10;;
17441;SDS011;8838;50.144;8.176;2023-06-22T08:19:39;11.45;;;7.45;;
17441;SDS011;8838;50.144;8.176;2023-06-22T08:22:07;9.15;;;8.23;;
17441;SDS011;8838;50.144;8.176;2023-06-22T08:24:33;9.05;;;7.80;;
17441;SDS011;8838;50.144;8.176;2023-06-22T08:27:00;8.88;;;7.30;;
17441;SDS011;8838;50.144;8.176;2023-06-22T08:29:27;9.02;;;8.05;;
17441;SDS011;8838;50.144;8.176;2023-06-22T08:31:54;12.98;;;8.10;;
17441;SDS011;8838;50.144;8.176;2023-06-22T08:34:20;8.63;;;7.60;;
17441;SDS011;8838;50.144;8.176;2023-06-22T08:36:49;10.77;;;8.35;;
17441;SDS011;8838;50.144;8.176;2023-06-22T08:39:17;9.02;;;8.10;;
17441;SDS011;8838;50.144;8.176;2023-06-22T08:41:45;9.25;;;7.03;;
17441;SDS011;8838;50.144;8.176;2023-06-22T08:44:12;10.93;;;8.00;;
17441;SDS011;8838;50.144;8.176;2023-06-22T08:46:38;9.95;;;8.63;;
17441;SDS011;8838;50.144;8.176;2023-06-22T08:49:06;7.95;;;7.18;;
17441;SDS011;8838;50.144;8.176;2023-06-22T08:51:34;7.78;;;6.90;;
17441;SDS011;8838;50.144;8.176;2023-06-22T08:54:03;8.57;;;7.15;;
17441;SDS011;8838;50.144;8.176;2023-06-22T08:56:30;8.25;;;7.45;;
17441;SDS011;8838;50.144;8.176;2023-06-22T08:58:56;7.80;;;7.00;;
17441;SDS011;8838;50.144;8.176;2023-06-22T09:01:23;10.60;;;6.82;;
17441;SDS011;8838;50.144;8.176;2023-06-22T09:03:50;7.90;;;7.10;;
17441;SDS011;8838;50.144;8.176;2023-06-22T09:06:22;11.10;;;8.00;;
17441;SDS011;8838;50.144;8.176;2023-06-22T09:08:49;10.52;;;7.47;;
17441;SDS011;8838;50.144;8.176;2023-06-22T09:11:18;9.25;;;6.80;;
17441;SDS011;8838;50.144;8.176;2023-06-22T09:13:44;9.27;;;6.85;;
17441;SDS011;8838;50.144;8.176;2023-06-22T09:16:11;9.88;;;7.13;;
17441;SDS011;8838;50.144;8.176;2023-06-22T09:18:38;10.63;;;7.82;;
17441;SDS011;8838;50.144;8.176;2023-06-22T09:21:06;10.85;;;7.55;;
17441;SDS011;8838;50.144;8.176;2023-06-22T09:23:33;8.40;;;7.28;;
17441;SDS011;8838;50.144;8.176;2023-06-22T09:26:00;10.27;;;7.60;;
17441;SDS011;8838;50.144;8.176;2023-06-22T09:28:28;8.77;;;7.13;;
17441;SDS011;8838;50.144;8.176;2023-06-22T09:30:55;10.55;;;7.28;;
17441;SDS011;8838;50.144;8.176;2023-06-22T09:33:24;10.45;;;7.25;;
17441;SDS011;8838;50.144;8.176;2023-06-22T09:35:51;10.02;;;7.15;;
17441;SDS011;8838;50.144;8.176;2023-06-22T09:38:18;8.80;;;7.05;;
17441;SDS011;8838;50.144;8.176;2023-06-22T09:40:44;9.07;;;7.38;;
17441;SDS011;8838;50.144;8.176;2023-06-22T09:43:11;11.35;;;7.38;;
17441;SDS011;8838;50.144;8.176;2023-06-22T09:45:39;11.25;;;8.23;;
17441;SDS011;8838;50.144;8.176;2023-06-22T09:48:06;8.52;;;7.60;;
17441;SDS011;8838;50.144;8.176;2023-06-22T09:50:34;9.00;;;7.38;;
17441;SDS011;8838;50.144;8.176;2023-06-22T09:53:01;14.90;;;10.63;;
17441;SDS011;8838;50.144;8.176;2023-06-22T09:55:28;11.40;;;9.50;;
17441;SDS011;8838;50.144;8.176;2023-06-22T09:57:55;11.07;;;7.93;;
17441;SDS011;8838;50.144;8.176;2023-06-22T10:00:22;14.82;;;8.02;;
17441;SDS011;8838;50.144;8.176;2023-06-22T10:02:50;11.30;;;7.53;;
17441;SDS011;8838;50.144;8.176;2023-06-22T10:05:17;10.95;;;7.60;;
17441;SDS011;8838;50.144;8.176;2023-06-22T10:07:46;9.90;;;8.35;;
17441;SDS011;8838;50.144;8.176;2023-06-22T10:10:13;13.10;;;7.60;;
17441;SDS011;8838;50.144;8.176;2023-06-22T10:12:45;10.93;;;8.85;;
17441;SDS011;8838;50.144;8.176;2023-06-22T10:15:13;10.75;;;9.25;;
17441;SDS011;8838;50.144;8.176;2023-06-22T10:17:40;11.32;;;8.18;;
17441;SDS011;8838;50.144;8.176;2023-06-22T10:20:09;9.02;;;7.47;;
17441;SDS011;8838;50.144;8.176;2023-06-22T10:22:39;10.50;;;8.88;;
17441;SDS011;8838;50.144;8.176;2023-06-22T10:25:07;11.10;;;8.85;;
17441;SDS011;8838;50.144;8.176;2023-06-22T10:27:34;9.73;;;8.18;;
17441;SDS011;8838;50.144;8.176;2023-06-22T10:30:05;10.98;;;8.40;;
17441;SDS011;8838;50.144;8.176;2023-06-22T10:32:32;9.52;;;8.55;;
17441;SDS011;8838;50.144;8.176;2023-06-22T10:34:59;11.20;;;8.80;;
17441;SDS011;8838;50.144;8.176;2023-06-22T10:37:27;13.45;;;9.25;;
17441;SDS011;8838;50.144;8.176;2023-06-22T10:39:54;11.27;;;9.32;;
17441;SDS011;8838;50.144;8.176;2023-06-22T10:42:21;12.90;;;9.05;;
17441;SDS011;8838;50.144;8.176;2023-06-22T10:44:48;12.02;;;8.40;;
17441;SDS011;8838;50.144;8.176;2023-06-22T10:47:15;12.18;;;9.07;;
17441;SDS011;8838;50.144;8.176;2023-06-22T10:49:41;13.00;;;9.20;;
17441;SDS011;8838;50.144;8.176;2023-06-22T10:52:08;12.05;;;8.55;;
17441;SDS011;8838;50.144;8.176;2023-06-22T10:54:37;10.23;;;8.95;;
17441;SDS011;8838;50.144;8.176;2023-06-22T10:57:04;10.07;;;8.48;;
17441;SDS011;8838;50.144;8.176;2023-06-22T10:59:31;11.57;;;9.20;;
17441;SDS011;8838;50.144;8.176;2023-06-22T11:01:58;10.43;;;8.18;;
17441;SDS011;8838;50.144;8.176;2023-06-22T11:04:25;10.52;;;9.30;;
17441;SDS011;8838;50.144;8.176;2023-06-22T11:06:51;9.88;;;8.40;;
17441;SDS011;8838;50.144;8.176;2023-06-22T11:09:18;10.93;;;8.50;;
17441;SDS011;8838;50.144;8.176;2023-06-22T11:11:47;11.63;;;9.68;;
17441;SDS011;8838;50.144;8.176;2023-06-22T11:14:15;11.25;;;8.77;;
17441;SDS011;8838;50.144;8.176;2023-06-22T11:16:45;13.02;;;8.05;;
17441;SDS011;8838;50.144;8.176;2023-06-22T11:19:12;9.50;;;8.48;;
17441;SDS011;8838;50.144;8.176;2023-06-22T11:21:39;9.70;;;8.05;;
17441;SDS011;8838;50.144;8.176;2023-06-22T11:24:06;10.75;;;8.10;;
17441;SDS011;8838;50.144;8.176;2023-06-22T11:26:33;10.98;;;8.23;;
17441;SDS011;8838;50.144;8.176;2023-06-22T11:29:01;12.38;;;8.35;;
17441;SDS011;8838;50.144;8.176;2023-06-22T11:31:30;9.23;;;8.25;;
17441;SDS011;8838;50.144;8.176;2023-06-22T11:33:57;9.75;;;8.18;;
17441;SDS011;8838;50.144;8.176;2023-06-22T11:36:24;8.65;;;7.80;;
17441;SDS011;8838;50.144;8.176;2023-06-22T11:38:53;10.25;;;8.23;;
17441;SDS011;8838;50.144;8.176;2023-06-22T11:41:19;9.25;;;7.75;;
17441;SDS011;8838;50.144;8.176;2023-06-22T11:43:46;9.98;;;7.38;;
17441;SDS011;8838;50.144;8.176;2023-06-22T11:46:14;10.82;;;6.95;;
17441;SDS011;8838;50.144;8.176;2023-06-22T11:48:41;10.45;;;7.50;;
17441;SDS011;8838;50.144;8.176;2023-06-22T11:51:08;9.10;;;7.35;;
17441;SDS011;8838;50.144;8.176;2023-06-22T11:53:35;8.57;;;6.97;;
17441;SDS011;8838;50.144;8.176;2023-06-22T11:56:02;11.00;;;7.07;;
17441;SDS011;8838;50.144;8.176;2023-06-22T11:58:28;13.65;;;6.82;;
17441;SDS011;8838;50.144;8.176;2023-06-22T12:00:55;10.10;;;7.28;;
17441;SDS011;8838;50.144;8.176;2023-06-22T12:03:23;13.55;;;7.35;;
17441;SDS011;8838;50.144;8.176;2023-06-22T12:05:50;9.73;;;7.25;;
17441;SDS011;8838;50.144;8.176;2023-06-22T12:08:17;10.40;;;6.60;;
17441;SDS011;8838;50.144;8.176;2023-06-22T12:10:44;11.00;;;7.00;;
17441;SDS011;8838;50.144;8.176;2023-06-22T12:13:11;24.17;;;19.05;;
17441;SDS011;8838;50.144;8.176;2023-06-22T12:15:38;10.20;;;7.50;;
17441;SDS011;8838;50.144;8.176;2023-06-22T12:18:07;14.60;;;6.72;;
17441;SDS011;8838;50.144;8.176;2023-06-22T12:20:36;11.90;;;7.05;;
17441;SDS011;8838;50.144;8.176;2023-06-22T12:23:03;10.88;;;7.40;;
17441;SDS011;8838;50.144;8.176;2023-06-22T12:25:30;12.00;;;6.63;;
17441;SDS011;8838;50.144;8.176;2023-06-22T12:27:57;11.40;;;6.65;;
17441;SDS011;8838;50.144;8.176;2023-06-22T12:30:23;11.93;;;6.40;;
17441;SDS011;8838;50.144;8.176;2023-06-22T12:32:50;11.27;;;7.07;;
17441;SDS011;8838;50.144;8.176;2023-06-22T12:35:17;17.80;;;7.05;;
17441;SDS011;8838;50.144;8.176;2023-06-22T12:37:45;12.85;;;6.57;;
17441;SDS011;8838;50.144;8.176;2023-06-22T12:40:12;13.25;;;7.43;;
17441;SDS011;8838;50.144;8.176;2023-06-22T12:42:39;12.40;;;7.35;;
17441;SDS011;8838;50.144;8.176;2023-06-22T12:45:07;9.55;;;6.55;;
17441;SDS011;8838;50.144;8.176;2023-06-22T12:47:34;10.98;;;7.10;;
17441;SDS011;8838;50.144;8.176;2023-06-22T12:50:01;15.57;;;7.28;;
17441;SDS011;8838;50.144;8.176;2023-06-22T12:52:29;13.18;;;6.43;;
17441;SDS011;8838;50.144;8.176;2023-06-22T12:54:57;12.85;;;7.60;;
17441;SDS011;8838;50.144;8.176;2023-06-22T12:57:26;17.75;;;7.50;;
17441;SDS011;8838;50.144;8.176;2023-06-22T12:59:53;13.07;;;7.43;;
17441;SDS011;8838;50.144;8.176;2023-06-22T13:02:20;14.23;;;6.85;;
17441;SDS011;8838;50.144;8.176;2023-06-22T13:04:49;10.27;;;6.93;;
17441;SDS011;8838;50.144;8.176;2023-06-22T13:07:16;9.80;;;6.63;;
17441;SDS011;8838;50.144;8.176;2023-06-22T13:09:43;13.80;;;7.28;;
17441;SDS011;8838;50.144;8.176;2023-06-22T13:12:13;13.80;;;7.85;;
17441;SDS011;8838;50.144;8.176;2023-06-22T13:14:39;12.38;;;7.43;;
17441;SDS011;8838;50.144;8.176;2023-06-22T13:17:08;10.98;;;7.90;;
17441;SDS011;8838;50.144;8.176;2023-06-22T13:19:35;15.73;;;7.30;;
17441;SDS011;8838;50.144;8.176;2023-06-22T13:22:01;13.10;;;7.20;;
17441;SDS011;8838;50.144;8.176;2023-06-22T13:24:29;15.05;;;7.00;;
17441;SDS011;8838;50.144;8.176;2023-06-22T13:26:55;10.32;;;6.95;;
17441;SDS011;8838;50.144;8.176;2023-06-22T13:29:23;14.73;;;6.90;;
17441;SDS011;8838;50.144;8.176;2023-06-22T13:31:50;13.18;;;7.38;;
17441;SDS011;8838;50.144;8.176;2023-06-22T13:34:17;15.55;;;7.00;;
17441;SDS011;8838;50.144;8.176;2023-06-22T13:36:44;13.13;;;7.30;;
17441;SDS011;8838;50.144;8.176;2023-06-22T13:39:13;14.55;;;7.15;;
17441;SDS011;8838;50.144;8.176;2023-06-22T13:41:39;12.55;;;6.55;;
17441;SDS011;8838;50.144;8.176;2023-06-22T13:44:08;10.48;;;7.03;;
17441;SDS011;8838;50.144;8.176;2023-06-22T13:46:36;12.80;;;7.85;;
17441;SDS011;8838;50.144;8.176;2023-06-22T13:49:03;15.15;;;7.47;;
17441;SDS011;8838;50.144;8.176;2023-06-22T13:51:30;13.90;;;7.28;;
17441;SDS011;8838;50.144;8.176;2023-06-22T13:53:57;13.80;;;7.47;;
17441;SDS011;8838;50.144;8.176;2023-06-22T13:56:24;11.07;;;6.93;;
17441;SDS011;8838;50.144;8.176;2023-06-22T13:59:03;12.90;;;7.45;;
17441;SDS011;8838;50.144;8.176;2023-06-22T14:01:34;16.70;;;7.70;;
17441;SDS011;8838;50.144;8.176;2023-06-22T14:04:02;13.98;;;7.15;;
17441;SDS011;8838;50.144;8.176;2023-06-22T14:06:29;13.38;;;6.78;;
17441;SDS011;8838;50.144;8.176;2023-06-22T14:08:56;15.65;;;7.40;;
17441;SDS011;8838;50.144;8.176;2023-06-22T14:11:24;14.85;;;7.43;;
17441;SDS011;8838;50.144;8.176;2023-06-22T14:13:51;13.35;;;6.78;;
17441;SDS011;8838;50.144;8.176;2023-06-22T14:16:18;13.80;;;7.00;;
17441;SDS011;8838;50.144;8.176;2023-06-22T14:18:44;11.43;;;6.43;;
17441;SDS011;8838;50.144;8.176;2023-06-22T14:21:13;17.00;;;6.47;;
17441;SDS011;8838;50.144;8.176;2023-06-22T14:23:40;12.80;;;6.78;;
17441;SDS011;8838;50.144;8.176;2023-06-22T14:26:07;13.45;;;6.78;;
17441;SDS011;8838;50.144;8.176;2023-06-22T14:28:33;13.98;;;6.82;;
17441;SDS011;8838;50.144;8.176;2023-06-22T14:31:00;12.45;;;6.70;;
17441;SDS011;8838;50.144;8.176;2023-06-22T14:33:27;13.50;;;6.20;;
17441;SDS011;8838;50.144;8.176;2023-06-22T14:35:54;17.67;;;6.22;;
17441;SDS011;8838;50.144;8.176;2023-06-22T14:38:22;15.13;;;6.00;;
17441;SDS011;8838;50.144;8.176;2023-06-22T14:40:49;13.32;;;6.53;;
17441;SDS011;8838;50.144;8.176;2023-06-22T14:43:16;10.88;;;6.03;;
17441;SDS011;8838;50.144;8.176;2023-06-22T14:45:44;14.52;;;5.93;;
17441;SDS011;8838;50.144;8.176;2023-06-22T14:48:11;13.32;;;5.57;;
17441;SDS011;8838;50.144;8.176;2023-06-22T14:50:37;16.13;;;6.28;;
17441;SDS011;8838;50.144;8.176;2023-06-22T14:53:04;12.55;;;5.43;;